Time;durP1;ratioP1;P1;durP2;ratioP2;P2;SDS_P1;SDS_P2;PMS_P1;PMS_P2;Temp;Humidity;BMP_temperature;BMP_pressure;BME280_temperature;BME280_humidity;BME280_pressure;Samples;Min_cycle;Max_cycle;Signal;HPM_P1;HPM_P2
2023/09/26 00:01:37;;;;;;;18.13;6.95;;;;;;;13.72;100.00;102217.22;6107699;19;20062;-74
2023/09/26 00:03:46;;;;;;;15.35;7.28;;;;;;;13.76;100.00;102224.97;6104266;19;20006;-76
2023/09/26 00:05:59;;;;;;;12.93;6.78;;;;;;;13.74;100.00;102226.78;6108246;19;20020;-75
2023/09/26 00:08:05;;;;;;;14.95;7.28;;;;;;;13.77;100.00;102231.13;6102572;19;20127;-74
2023/09/26 00:10:09;;;;;;;14.43;7.75;;;;;;;13.77;100.00;102231.13;6105572;19;20010;-74
2023/09/26 00:12:16;;;;;;;18.75;7.65;;;;;;;13.78;100.00;102238.16;6101390;19;20002;-74
2023/09/26 00:14:21;;;;;;;13.75;7.03;;;;;;;13.76;100.00;102230.25;6100655;19;20035;-76
2023/09/26 00:16:33;;;;;;;13.07;7.60;;;;;;;13.71;100.00;102232.19;6106492;19;20010;-74
2023/09/26 00:18:40;;;;;;;13.05;7.32;;;;;;;13.67;100.00;102240.28;6105587;19;20125;-76
2023/09/26 00:20:50;;;;;;;17.15;8.05;;;;;;;13.70;100.00;102248.09;6107587;19;20003;-76
2023/09/26 00:23:00;;;;;;;14.20;7.72;;;;;;;13.71;100.00;102252.47;6107840;19;20010;-76
2023/09/26 00:25:06;;;;;;;14.80;7.55;;;;;;;13.67;100.00;102250.84;6105759;19;20011;-77
2023/09/26 00:27:09;;;;;;;17.48;8.57;;;;;;;13.66;100.00;102249.94;6104881;19;20102;-74
2023/09/26 00:29:14;;;;;;;15.20;7.35;;;;;;;13.65;100.00;102247.38;6106613;19;20016;-75
2023/09/26 00:31:21;;;;;;;11.95;6.68;;;;;;;13.66;100.00;102249.94;6104621;19;20018;-75
2023/09/26 00:33:29;;;;;;;18.55;9.02;;;;;;;13.67;100.00;102245.56;6107716;19;20435;-74
2023/09/26 00:35:34;;;;;;;15.18;7.95;;;;;;;13.63;100.00;102239.47;6106362;19;20088;-76
2023/09/26 00:37:41;;;;;;;16.45;7.90;;;;;;;13.66;100.00;102246.44;6108515;19;20444;-76
2023/09/26 00:39:50;;;;;;;14.40;6.60;;;;;;;13.65;100.00;102255.28;6105889;19;20539;-74
2023/09/26 00:41:57;;;;;;;14.43;6.88;;;;;;;13.61;100.00;102246.59;6105490;19;20374;-76
2023/09/26 00:44:07;;;;;;;18.10;7.53;;;;;;;13.58;100.00;102246.69;6106249;19;20133;-74
2023/09/26 00:46:14;;;;;;;14.35;7.50;;;;;;;13.53;100.00;102252.13;6106188;19;20715;-74
2023/09/26 00:48:24;;;;;;;14.25;6.90;;;;;;;13.47;100.00;102239.09;6103703;19;20062;-76
2023/09/26 00:50:34;;;;;;;14.38;6.38;;;;;;;13.48;100.00;102239.94;6105184;19;20010;-75
2023/09/26 00:52:40;;;;;;;15.15;7.30;;;;;;;13.47;100.00;102241.72;6103403;19;20029;-76
2023/09/26 00:54:51;;;;;;;14.02;7.65;;;;;;;13.48;100.00;102245.22;6106310;19;20013;-75
2023/09/26 00:57:01;;;;;;;17.58;7.68;;;;;;;13.47;100.00;102244.38;6106816;19;21090;-75
2023/09/26 00:59:06;;;;;;;15.85;7.60;;;;;;;13.44;100.00;102243.63;6099449;19;21801;-75
2023/09/26 01:01:12;;;;;;;14.63;7.63;;;;;;;13.47;100.00;102238.22;6100896;19;20014;-74
2023/09/26 01:03:14;;;;;;;17.90;8.13;;;;;;;13.48;100.00;102240.84;6103157;19;20078;-74
2023/09/26 01:05:20;;;;;;;17.58;8.25;;;;;;;13.48;100.00;102234.66;6104428;19;20006;-75
2023/09/26 01:07:26;;;;;;;15.43;7.70;;;;;;;13.46;100.00;102240.00;6102397;19;20492;-75
2023/09/26 01:09:32;;;;;;;17.27;8.80;;;;;;;13.46;100.00;102226.81;6104973;19;20024;-75
2023/09/26 01:11:40;;;;;;;19.30;7.82;;;;;;;13.44;100.00;102233.91;6104370;19;20081;-75
2023/09/26 01:13:46;;;;;;;15.48;7.13;;;;;;;13.39;100.00;102243.75;6105951;19;20003;-75
2023/09/26 01:15:52;;;;;;;15.50;7.40;;;;;;;13.34;100.00;102230.66;6108373;19;20050;-76
2023/09/26 01:17:54;;;;;;;18.75;7.68;;;;;;;13.31;100.00;102238.69;6108179;19;20403;-75
2023/09/26 01:19:59;;;;;;;18.67;7.75;;;;;;;13.27;100.00;102231.78;6090969;19;20506;-74
2023/09/26 01:22:06;;;;;;;13.00;6.55;;;;;;;13.23;100.00;102235.38;6114290;19;20047;-75
2023/09/26 01:24:17;;;;;;;18.38;8.43;;;;;;;13.24;100.00;102236.22;6116465;19;20019;-74
2023/09/26 01:26:22;;;;;;;19.40;7.82;;;;;;;13.21;100.00;102231.06;6118143;19;20011;-77
2023/09/26 01:28:29;;;;;;;15.25;7.82;;;;;;;13.19;100.00;102233.72;6118608;19;20038;-77
2023/09/26 01:30:31;;;;;;;16.38;7.63;;;;;;;13.16;100.00;102234.72;6117752;19;20014;-76
2023/09/26 01:32:36;;;;;;;14.45;6.82;;;;;;;13.15;100.00;102234.72;6114370;19;20040;-74
2023/09/26 01:34:42;;;;;;;15.35;6.90;;;;;;;13.15;100.00;102232.97;6119746;19;20396;-74
2023/09/26 01:36:47;;;;;;;14.45;7.03;;;;;;;13.13;100.00;102223.34;6116771;19;20018;-74
2023/09/26 01:38:52;;;;;;;13.63;6.53;;;;;;;13.16;100.00;102220.63;6115202;19;20042;-75
2023/09/26 01:41:02;;;;;;;17.13;7.28;;;;;;;13.17;100.00;102212.66;6109495;19;20125;-75
2023/09/26 01:43:07;;;;;;;14.60;7.32;;;;;;;13.18;100.00;102201.19;6110285;19;20827;-74
2023/09/26 01:45:13;;;;;;;13.65;7.72;;;;;;;13.20;100.00;102203.78;6107336;19;20043;-74
2023/09/26 01:47:35;;;;;;;15.85;8.50;;;;;;;13.21;100.00;102202.00;6103629;19;20010;-75
2023/09/26 01:49:41;;;;;;;17.60;8.07;;;;;;;13.15;100.00;102201.28;6104809;19;20021;-75
2023/09/26 01:51:47;;;;;;;18.25;8.02;;;;;;;13.08;100.00;102198.88;6104574;19;20007;-74
2023/09/26 01:53:54;;;;;;;18.17;7.38;;;;;;;13.07;100.00;102203.28;6101456;19;20625;-75
2023/09/26 01:56:03;;;;;;;18.15;7.85;;;;;;;13.10;100.00;102213.75;6104610;19;20010;-75
2023/09/26 01:58:10;;;;;;;16.73;8.07;;;;;;;13.12;100.00;102203.16;6104954;19;20022;-74
2023/09/26 02:00:17;;;;;;;17.42;9.38;;;;;;;13.10;100.00;102194.41;6101185;19;20003;-76
2023/09/26 02:02:23;;;;;;;16.10;7.40;;;;;;;13.11;100.00;102199.66;6099944;19;20002;-75
2023/09/26 02:04:28;;;;;;;17.50;8.13;;;;;;;13.09;100.00;102198.84;6099090;19;20012;-74
2023/09/26 02:06:35;;;;;;;14.85;8.73;;;;;;;13.05;100.00;102202.47;6103532;19;20466;-75
2023/09/26 02:08:37;;;;;;;17.88;8.80;;;;;;;13.04;100.00;102199.88;6106262;19;20082;-75
2023/09/26 02:10:44;;;;;;;17.88;8.07;;;;;;;13.04;100.00;102195.47;6103142;19;20381;-75
2023/09/26 02:12:49;;;;;;;16.25;6.82;;;;;;;12.99;100.00;102197.38;6104887;19;20014;-74
2023/09/26 02:14:54;;;;;;;18.05;8.23;;;;;;;12.99;100.00;102200.00;6106149;19;20059;-75
2023/09/26 02:16:59;;;;;;;18.17;7.78;;;;;;;12.93;100.00;102192.28;6103757;19;20011;-74
2023/09/26 02:19:05;;;;;;;13.25;8.05;;;;;;;12.88;100.00;102187.13;6102791;19;20014;-74
2023/09/26 02:21:22;;;;;;;13.30;6.78;;;;;;;12.85;100.00;102189.84;6101778;19;20381;-74
2023/09/26 02:23:36;;;;;;;17.67;7.88;;;;;;;12.84;100.00;102180.19;6104836;19;20019;-75
2023/09/26 02:25:41;;;;;;;14.32;8.05;;;;;;;12.85;100.00;102192.50;6105363;19;20073;-75
2023/09/26 02:27:53;;;;;;;17.15;8.25;;;;;;;12.80;100.00;102191.75;6084649;19;20014;-75
2023/09/26 02:29:58;;;;;;;15.13;7.20;;;;;;;12.77;100.00;102189.22;6102343;19;20006;-75
2023/09/26 02:32:05;;;;;;;20.40;9.20;;;;;;;12.74;100.00;102187.53;6103524;19;20007;-75
2023/09/26 02:34:12;;;;;;;19.73;8.15;;;;;;;12.69;100.00;102180.63;6103573;19;20002;-75
2023/09/26 02:36:20;;;;;;;16.13;8.18;;;;;;;12.72;100.00;102185.84;6101884;19;20007;-76
2023/09/26 02:38:25;;;;;;;15.65;6.93;;;;;;;12.65;100.00;102187.75;6102388;19;20014;-75
2023/09/26 02:40:30;;;;;;;12.80;6.70;;;;;;;12.62;100.00;102185.22;6102007;19;20014;-74
2023/09/26 02:42:35;;;;;;;17.52;7.88;;;;;;;12.60;100.00;102187.03;6103362;19;20003;-74
2023/09/26 02:44:43;;;;;;;14.82;8.20;;;;;;;12.62;100.00;102184.34;6102099;19;20694;-74
2023/09/26 02:46:48;;;;;;;14.65;7.03;;;;;;;12.61;100.00;102186.13;6099665;19;20003;-75
2023/09/26 02:48:53;;;;;;;14.18;7.00;;;;;;;12.60;100.00;102186.16;6103580;19;20353;-75
2023/09/26 02:51:05;;;;;;;14.77;7.88;;;;;;;12.61;100.00;102182.59;6101527;19;20003;-76
2023/09/26 02:53:11;;;;;;;15.50;7.10;;;;;;;12.64;100.00;102179.91;6091152;19;20006;-76
2023/09/26 02:55:20;;;;;;;15.13;8.15;;;;;;;12.65;100.00;102177.22;6104281;19;20007;-74
2023/09/26 02:57:31;;;;;;;17.60;8.60;;;;;;;12.62;100.00;102185.22;6102930;19;20025;-74
2023/09/26 02:59:38;;;;;;;17.50;8.23;;;;;;;12.59;100.00;102180.03;6080509;19;20006;-74
2023/09/26 03:01:43;;;;;;;18.70;8.48;;;;;;;12.58;100.00;102172.16;6100172;19;20010;-75
2023/09/26 03:03:51;;;;;;;17.02;7.88;;;;;;;12.55;100.00;102170.47;6103391;19;20018;-75
2023/09/26 03:05:58;;;;;;;16.88;9.05;;;;;;;12.52;100.00;102179.31;6101907;19;20006;-75
2023/09/26 03:08:06;;;;;;;16.73;7.95;;;;;;;12.53;100.00;102169.63;6100567;19;20115;-75
2023/09/26 03:10:13;;;;;;;16.17;8.10;;;;;;;12.56;100.00;102169.56;6101663;19;20011;-75
2023/09/26 03:12:19;;;;;;;18.23;8.05;;;;;;;12.59;100.00;102169.47;6100039;19;20454;-74
2023/09/26 03:14:23;;;;;;;14.07;7.15;;;;;;;12.58;100.00;102173.00;6101673;19;20006;-75
2023/09/26 03:16:28;;;;;;;17.13;8.32;;;;;;;12.61;100.00;102172.94;6101742;19;20774;-75
2023/09/26 03:18:36;;;;;;;16.63;8.27;;;;;;;12.63;100.00;102168.47;6101296;19;20014;-74
2023/09/26 03:20:38;;;;;;;15.70;8.50;;;;;;;12.66;100.00;102170.16;6102106;19;19999;-75
2023/09/26 03:22:44;;;;;;;18.30;9.60;;;;;;;12.58;100.00;102162.47;6100861;19;20020;-74
2023/09/26 03:24:49;;;;;;;18.95;10.10;;;;;;;12.61;100.00;102157.13;6101183;19;20016;-74
2023/09/26 03:26:54;;;;;;;25.67;10.40;;;;;;;12.63;100.00;102157.06;6101344;19;20486;-75
2023/09/26 03:28:56;;;;;;;17.48;9.45;;;;;;;12.58;100.00;102151.91;6102353;19;20014;-75
2023/09/26 03:31:01;;;;;;;20.02;11.15;;;;;;;12.63;100.00;102144.72;6099030;19;20024;-74
2023/09/26 03:33:09;;;;;;;21.77;10.70;;;;;;;12.65;100.00;102142.94;6098687;19;20536;-75
2023/09/26 03:35:19;;;;;;;18.80;9.48;;;;;;;12.59;100.00;102135.19;6095643;19;20011;-75
2023/09/26 03:37:25;;;;;;;19.48;10.23;;;;;;;12.58;100.00;102136.09;6098812;19;20474;-76
2023/09/26 03:39:32;;;;;;;21.25;10.35;;;;;;;12.57;100.00;102136.16;6101510;19;20078;-76
2023/09/26 03:41:37;;;;;;;18.92;9.77;;;;;;;12.56;100.00;102129.13;6099646;19;20013;-77
2023/09/26 03:43:42;;;;;;;20.60;9.65;;;;;;;12.55;100.00;102130.91;6102000;19;20014;-76
2023/09/26 03:45:53;;;;;;;21.48;10.50;;;;;;;12.57;100.00;102133.50;6102558;19;20078;-76
2023/09/26 03:47:59;;;;;;;21.10;10.43;;;;;;;12.58;100.00;102129.97;6101274;19;20027;-76
2023/09/26 03:50:04;;;;;;;21.35;10.13;;;;;;;12.59;100.00;102127.28;6102471;19;20010;-75
2023/09/26 03:52:12;;;;;;;20.80;9.68;;;;;;;12.57;100.00;102126.47;6102524;19;20013;-75
2023/09/26 03:54:17;;;;;;;24.40;10.60;;;;;;;12.56;100.00;102130.00;6095240;19;20019;-74
2023/09/26 03:59:26;;;;;;;22.73;11.70;;;;;;;12.59;100.00;102131.72;6043634;19;20010;-76
2023/09/26 04:01:31;;;;;;;19.13;10.00;;;;;;;12.59;100.00;102129.94;6096148;19;20110;-76
2023/09/26 04:03:34;;;;;;;24.95;12.00;;;;;;;12.65;100.00;102132.38;6096758;19;20006;-75
2023/09/26 04:05:39;;;;;;;22.02;10.25;;;;;;;12.69;100.00;102125.22;6098993;19;20031;-76
2023/09/26 04:07:48;;;;;;;26.27;12.50;;;;;;;12.77;100.00;102117.09;6098265;19;20059;-76
2023/09/26 04:09:54;;;;;;;22.90;12.25;;;;;;;12.79;100.00;102118.78;6097479;19;20010;-75
2023/09/26 04:12:01;;;;;;;25.73;13.02;;;;;;;12.84;100.00;102110.75;6090799;19;20097;-74
2023/09/26 04:14:07;;;;;;;25.60;14.38;;;;;;;12.84;100.00;102116.88;6096244;19;20006;-74
2023/09/26 04:16:12;;;;;;;31.35;14.38;;;;;;;12.89;100.00;102114.97;6094548;19;20011;-75
2023/09/26 04:18:22;;;;;;;26.83;12.20;;;;;;;12.88;100.00;102109.75;6093786;19;20018;-76
2023/09/26 04:20:27;;;;;;;27.67;12.15;;;;;;;12.91;100.00;102118.44;6095624;19;20003;-75
2023/09/26 04:22:41;;;;;;;24.65;13.27;;;;;;;12.92;100.00;102116.66;6098824;19;20034;-75
2023/09/26 04:24:49;;;;;;;26.35;12.68;;;;;;;12.98;100.00;102131.44;6110216;19;20017;-75
2023/09/26 04:26:54;;;;;;;27.77;14.68;;;;;;;12.98;100.00;102127.03;6108600;19;20028;-75
2023/09/26 04:28:59;;;;;;;23.00;13.60;;;;;;;12.94;100.00;102126.25;6113456;19;20043;-75
2023/09/26 04:31:04;;;;;;;29.92;13.95;;;;;;;12.94;100.00;102122.75;6107953;19;20551;-75
2023/09/26 04:33:10;;;;;;;27.05;12.30;;;;;;;12.98;100.00;102118.25;6115837;19;19999;-76
2023/09/26 04:35:12;;;;;;;24.85;12.93;;;;;;;12.99;100.00;102118.22;6115535;19;20007;-74
2023/09/26 04:37:24;;;;;;;23.33;11.93;;;;;;;13.00;100.00;102109.38;6112284;19;20609;-75
2023/09/26 04:39:30;;;;;;;20.90;11.13;;;;;;;12.99;100.00;102112.06;6110047;19;20047;-74
2023/09/26 04:41:37;;;;;;;22.90;12.65;;;;;;;12.97;100.00;102112.09;6104304;19;20020;-76
2023/09/26 04:43:42;;;;;;;23.90;12.15;;;;;;;12.93;100.00;102105.22;6096378;19;20002;-76
2023/09/26 04:45:48;;;;;;;23.52;12.02;;;;;;;12.90;100.00;102110.53;6105744;19;20013;-76
2023/09/26 04:47:50;;;;;;;24.27;11.75;;;;;;;12.90;100.00;102105.28;6104308;19;20022;-76
2023/09/26 04:49:55;;;;;;;;;;;;;;;12.90;100.00;102100.00;6105215;19;20662;-73
2023/09/26 04:52:02;;;;;;;24.98;12.55;;;;;;;12.89;100.00;102096.50;6105169;19;20528;-76
2023/09/26 04:54:10;;;;;;;22.95;12.35;;;;;;;12.87;100.00;102105.38;6099619;19;20439;-77
2023/09/26 04:56:18;;;;;;;25.98;12.27;;;;;;;12.84;100.00;102105.47;6103641;19;20011;-77
2023/09/26 04:58:30;;;;;;;25.95;12.60;;;;;;;12.84;100.00;102103.69;6104273;19;20488;-74
2023/09/26 05:00:36;;;;;;;;;;;;;;;12.82;100.00;102102.88;6105299;19;20514;-74
2023/09/26 05:02:41;;;;;;;24.08;11.98;;;;;;;12.81;100.00;102100.28;6103244;19;20453;-76
2023/09/26 05:04:48;;;;;;;28.52;12.35;;;;;;;12.79;100.00;102105.59;6106624;19;20006;-75
2023/09/26 05:06:59;;;;;;;27.75;12.50;;;;;;;12.80;100.00;102109.13;6104095;19;20046;-75
2023/09/26 05:09:08;;;;;;;23.67;11.38;;;;;;;12.79;100.00;102108.22;6106938;19;20676;-77
2023/09/26 05:11:16;;;;;;;23.73;12.43;;;;;;;12.78;100.00;102105.66;6106140;19;20033;-74
2023/09/26 05:13:21;;;;;;;28.48;13.68;;;;;;;12.77;100.00;102104.81;6109215;19;20340;-74
2023/09/26 05:15:28;;;;;;;25.60;12.77;;;;;;;12.77;100.00;102102.16;6100252;19;20343;-76
2023/09/26 05:17:34;;;;;;;25.70;13.48;;;;;;;12.79;100.00;102102.97;6100531;19;20011;-74
2023/09/26 05:19:38;;;;;;;29.92;15.52;;;;;;;12.79;100.00;102091.53;6111516;19;20036;-76
2023/09/26 05:21:44;;;;;;;29.10;15.10;;;;;;;12.87;100.00;102089.53;6107039;19;20487;-76
2023/09/26 05:23:49;;;;;;;26.60;13.90;;;;;;;12.91;100.00;102085.91;6105554;19;20015;-76
2023/09/26 05:25:54;;;;;;;26.10;14.00;;;;;;;12.88;100.00;102086.88;6106659;19;20020;-76
2023/09/26 05:27:59;;;;;;;25.95;14.77;;;;;;;12.85;100.00;102086.06;6106490;19;20499;-74
2023/09/26 05:30:04;;;;;;;27.23;14.57;;;;;;;12.82;100.00;102100.25;6104455;19;20466;-76
2023/09/26 05:32:15;;;;;;;33.38;17.60;;;;;;;12.76;100.00;102108.31;6102279;19;20006;-77
2023/09/26 05:34:20;;;;;;;31.63;16.58;;;;;;;12.73;100.00;102108.41;6100592;19;20018;-76
2023/09/26 05:36:25;;;;;;;28.85;15.65;;;;;;;12.71;100.00;102107.59;6103789;19;20019;-78
2023/09/26 05:38:32;;;;;;;33.40;14.95;;;;;;;12.68;100.00;102107.69;6101763;19;20006;-74
2023/09/26 05:40:36;;;;;;;26.35;14.50;;;;;;;12.67;100.00;102114.75;6102524;19;20342;-74
2023/09/26 05:42:43;;;;;;;27.00;13.52;;;;;;;12.64;100.00;102117.47;6098217;19;20446;-75
2023/09/26 05:44:49;;;;;;;28.95;15.00;;;;;;;12.61;100.00;102116.69;6097469;19;20026;-75
2023/09/26 05:46:54;;;;;;;26.13;12.95;;;;;;;12.58;100.00;102112.34;6102408;19;20043;-75
2023/09/26 05:49:02;;;;;;;29.65;14.23;;;;;;;12.57;100.00;102110.63;6104979;19;20010;-75
2023/09/26 05:51:07;;;;;;;26.02;12.52;;;;;;;12.55;100.00;102109.81;6095884;19;20045;-74
2023/09/26 05:53:12;;;;;;;25.65;13.85;;;;;;;12.58;100.00;102111.50;6101292;19;20519;-75
2023/09/26 05:55:16;;;;;;;24.58;13.43;;;;;;;12.60;100.00;102113.19;6104753;19;20015;-76
2023/09/26 05:57:21;;;;;;;22.23;12.82;;;;;;;12.62;100.00;102111.38;6098319;19;20011;-75
2023/09/26 05:59:29;;;;;;;27.10;14.32;;;;;;;12.63;100.00;102115.72;6101349;19;20093;-75
2023/09/26 06:01:34;;;;;;;28.35;14.50;;;;;;;12.62;100.00;102113.16;6105977;19;20027;-76
2023/09/26 06:03:41;;;;;;;27.65;13.80;;;;;;;12.63;100.00;102109.59;6102974;19;20013;-75
2023/09/26 06:05:49;;;;;;;26.52;14.40;;;;;;;12.62;100.00;102106.09;6106770;19;20018;-75
2023/09/26 06:07:57;;;;;;;29.02;14.52;;;;;;;12.66;100.00;102102.44;6098781;19;20018;-75
2023/09/26 06:10:04;;;;;;;24.25;13.35;;;;;;;12.66;100.00;102098.94;6098333;19;20327;-75
2023/09/26 06:12:15;;;;;;;29.98;16.08;;;;;;;12.74;100.00;102099.59;6103964;19;20003;-75
2023/09/26 06:14:20;;;;;;;30.10;15.10;;;;;;;12.69;100.00;102089.19;6104784;19;20092;-75
2023/09/26 06:16:25;;;;;;;25.10;12.98;;;;;;;12.73;100.00;102093.44;6101384;19;20020;-75
2023/09/26 06:18:32;;;;;;;27.77;12.98;;;;;;;12.75;100.00;102090.78;6105027;19;20014;-75
2023/09/26 06:20:38;;;;;;;27.75;14.88;;;;;;;12.80;100.00;102095.94;6105569;19;20445;-76
2023/09/26 06:22:46;;;;;;;26.70;13.52;;;;;;;12.81;100.00;102095.00;6101656;19;20375;-75
2023/09/26 06:24:51;;;;;;;29.35;15.77;;;;;;;12.84;100.00;102094.91;6106087;19;20003;-75
2023/09/26 06:26:58;;;;;;;28.98;13.90;;;;;;;12.86;100.00;102093.09;6105195;19;20045;-75
2023/09/26 06:29:03;;;;;;;25.98;13.95;;;;;;;12.89;100.00;102088.59;6098962;19;20368;-75
2023/09/26 06:31:08;;;;;;;28.27;14.30;;;;;;;12.94;100.00;102091.09;6100730;19;20034;-76
2023/09/26 06:33:11;;;;;;;25.50;15.23;;;;;;;12.97;100.00;102093.63;6098064;19;20007;-75
2023/09/26 06:35:19;;;;;;;29.48;14.55;;;;;;;13.01;100.00;102100.56;6067561;19;20003;-76
2023/09/26 06:37:30;;;;;;;31.27;14.50;;;;;;;13.09;100.00;102100.31;6100181;19;20364;-76
2023/09/26 06:39:38;;;;;;;28.25;15.40;;;;;;;13.18;100.00;102098.25;6097219;19;20006;-76
2023/09/26 06:41:45;;;;;;;28.25;16.85;;;;;;;13.31;100.00;102100.53;6092174;19;20324;-76
2023/09/26 06:43:48;;;;;;;38.65;18.48;;;;;;;13.40;100.00;102094.94;6100177;19;20002;-76
2023/09/26 06:45:53;;;;;;;;;;;;;;;13.50;100.00;102090.25;6101948;19;20480;-75
2023/09/26 06:48:01;;;;;;;35.97;17.73;;;;;;;13.58;100.00;102091.72;6097650;19;19914;-78
2023/09/26 06:50:10;;;;;;;32.75;17.30;;;;;;;13.71;100.00;102086.03;6102991;19;20500;-76
2023/09/26 06:52:16;;;;;;;34.97;18.83;;;;;;;13.80;100.00;102083.09;6101719;19;20006;-76
2023/09/26 06:54:21;;;;;;;32.35;17.75;;;;;;;13.84;100.00;102076.78;6097850;19;20014;-76
2023/09/26 06:56:31;;;;;;;31.75;18.20;;;;;;;13.88;100.00;102077.53;6094399;19;20014;-77
2023/09/26 06:58:38;;;;;;;34.90;17.75;;;;;;;13.95;100.00;102079.91;6101218;19;20006;-77
2023/09/26 07:00:44;;;;;;;33.90;17.95;;;;;;;13.98;100.00;102082.47;6097622;19;20010;-74
2023/09/26 07:02:49;;;;;;;35.22;16.90;;;;;;;14.07;100.00;102078.63;6093955;19;20038;-75
2023/09/26 07:04:56;;;;;;;31.02;16.38;;;;;;;14.18;100.00;102080.88;6094925;19;20044;-75
2023/09/26 07:07:03;;;;;;;31.33;16.85;;;;;;;14.25;100.00;102079.75;6098451;19;20162;-76
2023/09/26 07:09:12;;;;;;;29.50;15.77;;;;;;;14.31;100.00;102084.81;6096195;19;20006;-75
2023/09/26 07:11:18;;;;;;;32.45;17.13;;;;;;;14.40;100.00;102088.88;6092336;19;20014;-75
2023/09/26 07:13:27;;;;;;;36.03;16.48;;;;;;;14.47;100.00;102087.75;6099329;19;20118;-75
2023/09/26 07:16:01;;;;;;;29.05;16.27;;;;;;;14.55;100.00;102083.06;6098271;19;20002;-76
2023/09/26 07:18:10;;;;;;;31.80;17.67;;;;;;;14.70;100.00;102079.00;6098218;19;20027;-75
2023/09/26 07:20:19;;;;;;;34.20;17.98;;;;;;;14.87;100.00;102084.50;6100682;19;20018;-78
2023/09/26 07:22:24;;;;;;;32.17;18.60;;;;;;;14.97;100.00;102076.22;6105691;19;20564;-77
2023/09/26 07:24:35;;;;;;;29.80;16.35;;;;;;;15.05;100.00;102088.22;6102568;19;20034;-76
2023/09/26 07:26:55;;;;;;;28.92;15.63;;;;;;;15.17;100.00;102096.63;6111332;19;20015;-75
2023/09/26 07:29:05;;;;;;;30.02;16.33;;;;;;;15.35;100.00;102094.09;6100363;19;20002;-76
2023/09/26 07:31:10;;;;;;;30.50;16.55;;;;;;;15.53;100.00;102089.81;6100169;19;20013;-75
2023/09/26 07:33:15;;;;;;;28.95;16.40;;;;;;;15.55;100.00;102081.78;6101819;19;20054;-75
2023/09/26 07:35:19;;;;;;;31.80;16.70;;;;;;;15.67;100.00;102080.44;6100371;19;20510;-75
2023/09/26 07:37:25;;;;;;;25.45;15.63;;;;;;;16.00;100.00;102086.97;6105349;19;20023;-75
2023/09/26 07:39:32;;;;;;;26.85;15.50;;;;;;;16.09;100.00;102092.78;6083427;19;20111;-75
2023/09/26 07:41:37;;;;;;;28.65;16.67;;;;;;;16.12;100.00;102087.38;6093684;19;20010;-77
2023/09/26 07:43:42;;;;;;;27.48;14.77;;;;;;;16.07;100.00;102089.38;6101247;19;20003;-75
2023/09/26 07:45:52;;;;;;;29.25;15.60;;;;;;;16.06;100.00;102087.63;6096318;19;22469;-74
2023/09/26 07:47:58;;;;;;;28.45;14.57;;;;;;;16.13;100.00;102091.75;6086490;19;20042;-75
2023/09/26 07:50:03;;;;;;;29.20;15.60;;;;;;;16.23;100.00;102085.97;6088876;19;20585;-74
2023/09/26 07:52:10;;;;;;;34.15;14.60;;;;;;;16.48;100.00;102078.69;6094154;19;20006;-75
2023/09/26 07:54:15;;;;;;;23.95;13.60;;;;;;;16.65;100.00;102074.34;6094808;19;19999;-76
2023/09/26 07:56:20;;;;;;;27.10;15.32;;;;;;;16.73;100.00;102068.66;6099391;19;20028;-76
2023/09/26 07:58:25;;;;;;;27.38;13.65;;;;;;;16.67;100.00;102071.63;6094673;19;20036;-77
2023/09/26 08:00:30;;;;;;;24.80;13.57;;;;;;;16.60;100.00;102063.06;6102768;19;20014;-76
2023/09/26 08:02:38;;;;;;;26.00;13.23;;;;;;;16.58;100.00;102064.94;6093616;19;20014;-78
2023/09/26 08:04:45;;;;;;;21.00;12.90;;;;;;;16.61;100.00;102074.53;6085119;19;20086;-74
2023/09/26 08:06:50;;;;;;;25.38;13.40;;;;;;;16.76;100.00;102067.66;6078306;19;20006;-74
2023/09/26 08:09:00;;;;;;;22.75;13.57;;;;;;;16.95;100.00;102068.53;6106664;19;20011;-74
2023/09/26 08:11:09;;;;;;;22.10;13.10;;;;;;;17.16;100.00;102079.06;6087301;19;20027;-75
2023/09/26 08:13:16;;;;;;;23.70;13.48;;;;;;;17.16;100.00;102071.09;6099208;19;20018;-75
2023/09/26 08:15:21;;;;;;;23.83;13.63;;;;;;;17.06;100.00;102076.88;6109671;19;20022;-76
2023/09/26 08:17:27;;;;;;;22.92;14.43;;;;;;;17.08;100.00;102079.44;6108640;19;20014;-75
2023/09/26 08:19:36;;;;;;;21.10;13.00;;;;;;;17.01;100.00;102083.31;6109338;19;20024;-75
2023/09/26 08:21:42;;;;;;;19.88;12.18;;;;;;;17.03;100.00;102081.44;6112625;19;20026;-76
2023/09/26 08:23:50;;;;;;;23.10;13.13;;;;;;;17.02;100.00;102069.13;6104148;19;20027;-75
2023/09/26 08:25:58;;;;;;;21.45;12.52;;;;;;;17.21;100.00;102071.75;6084076;19;20085;-75
2023/09/26 08:28:03;;;;;;;25.23;13.88;;;;;;;17.41;100.00;102068.13;6108493;19;20381;-74
2023/09/26 08:30:11;;;;;;;24.20;13.82;;;;;;;17.47;100.00;102066.00;6109075;19;20018;-76
2023/09/26 08:32:16;;;;;;;24.38;14.05;;;;;;;17.76;100.00;102066.31;6108245;19;20023;-75
2023/09/26 08:34:19;;;;;;;23.20;15.35;;;;;;;17.85;100.00;102070.34;6104724;19;20006;-76
2023/09/26 08:36:29;;;;;;;23.35;13.23;;;;;;;18.32;100.00;102074.97;6103562;19;20030;-76
2023/09/26 08:38:34;;;;;;;24.35;13.55;;;;;;;18.46;100.00;102076.88;6099108;19;20444;-75
2023/09/26 08:40:38;;;;;;;25.88;14.63;;;;;;;18.32;100.00;102067.84;6106577;19;20002;-74
2023/09/26 08:42:52;;;;;;;23.48;14.02;;;;;;;18.48;100.00;102057.22;6105940;19;20009;-75
2023/09/26 08:45:00;;;;;;;21.92;13.23;;;;;;;18.36;100.00;102061.44;6106069;19;20540;-76
2023/09/26 08:47:06;;;;;;;23.27;13.52;;;;;;;18.35;100.00;102062.38;6081041;19;20003;-75
2023/09/26 08:49:16;;;;;;;21.10;13.48;;;;;;;18.10;100.00;102064.63;6101460;19;20010;-75
2023/09/26 08:51:31;;;;;;;21.23;12.82;;;;;;;17.93;100.00;102063.72;6101080;19;20034;-77
2023/09/26 08:53:38;;;;;;;21.52;11.80;;;;;;;17.88;100.00;102067.53;6102167;19;20022;-74
2023/09/26 08:55:49;;;;;;;20.20;12.00;;;;;;;17.92;100.00;102077.91;6085989;19;20014;-80
2023/09/26 08:57:58;;;;;;;22.60;12.68;;;;;;;18.00;100.00;102066.88;6081119;19;20220;-75
2023/09/26 09:00:01;;;;;;;21.92;11.18;;;;;;;17.77;100.00;102060.94;6099018;19;20007;-75
2023/09/26 09:02:08;;;;;;;21.05;11.32;;;;;;;17.87;100.00;102053.38;6100719;19;20003;-73
2023/09/26 09:04:37;;;;;;;19.55;10.88;;;;;;;17.89;100.00;102046.16;6097148;19;20007;-75
2023/09/26 09:06:52;;;;;;;20.27;10.48;;;;;;;17.98;100.00;102052.81;6107979;19;20010;-76
2023/09/26 09:09:13;;;;;;;19.92;11.27;;;;;;;18.11;98.83;102045.03;6084729;19;20035;-75
2023/09/26 09:11:31;;;;;;;21.02;11.00;;;;;;;18.47;98.30;102052.00;6083767;19;20491;-76
2023/09/26 09:16:23;;;;;;;21.75;12.18;;;;;;;18.54;96.70;102048.06;6101981;19;20010;-76
2023/09/26 09:18:30;;;;;;;20.40;11.52;;;;;;;18.46;97.56;102044.94;6103116;19;20465;-74
2023/09/26 09:20:36;;;;;;;20.35;12.05;;;;;;;18.31;97.89;102044.00;6099304;19;20173;-74
2023/09/26 09:22:51;;;;;;;22.88;12.00;;;;;;;18.46;98.30;102055.59;6098818;19;20074;-76
2023/09/26 09:27:48;;;;;;;16.13;10.18;;;;;;;18.96;96.42;102058.16;6035251;19;20014;-75
2023/09/26 09:30:07;;;;;;;22.48;11.02;;;;;;;19.30;93.84;102064.25;6097033;19;20328;-75
2023/09/26 09:32:14;;;;;;;17.33;10.05;;;;;;;19.24;91.21;102068.09;6088775;19;20010;-75
2023/09/26 09:34:21;;;;;;;20.02;10.98;;;;;;;19.21;91.26;102068.28;6100009;19;20585;-75
2023/09/26 09:36:29;;;;;;;20.10;11.85;;;;;;;19.30;91.53;102059.75;6099326;19;20415;-74
2023/09/26 09:38:37;;;;;;;22.13;11.50;;;;;;;19.23;90.98;102055.72;6100948;19;20429;-74
2023/09/26 09:40:42;;;;;;;19.58;10.02;;;;;;;19.45;87.61;102054.47;6103057;19;20353;-75
2023/09/26 09:42:44;;;;;;;18.63;10.20;;;;;;;19.67;88.35;102046.97;6097969;19;20010;-74
2023/09/26 09:44:52;;;;;;;20.48;11.13;;;;;;;20.11;86.50;102050.53;6103324;19;20070;-74